createdAt,value
2018-11-11T00:00:14.858Z,3.50
2018-11-11T00:01:14.847Z,3.40
2018-11-11T00:02:14.835Z,3.70
2018-11-11T00:03:14.844Z,3.30
2018-11-11T00:04:14.823Z,3.30
2018-11-11T00:05:14.801Z,3.30
2018-11-11T00:06:14.791Z,3.30
2018-11-11T00:07:14.777Z,3.20
2018-11-11T00:08:14.766Z,3.50
2018-11-11T00:09:14.774Z,3.10
2018-11-11T00:10:14.754Z,3.60
2018-11-11T00:11:14.732Z,3.40
2018-11-11T00:12:14.721Z,3.30
2018-11-11T00:13:14.710Z,3.60
2018-11-11T00:14:14.714Z,3.70
2018-11-11T00:15:14.687Z,3.40
2018-11-11T00:16:14.682Z,3.40
2018-11-11T00:17:14.665Z,3.30
2018-11-11T00:18:14.657Z,3.10
2018-11-11T00:19:14.662Z,3.40
2018-11-11T00:20:14.631Z,3.50
2018-11-11T00:21:14.618Z,3.30
2018-11-11T00:22:14.621Z,3.50
2018-11-11T00:23:14.614Z,3.50
2018-11-11T00:24:14.600Z,3.30
2018-11-11T00:25:14.575Z,3.30
2018-11-11T00:26:14.563Z,3.30
2018-11-11T00:27:14.553Z,3.70
2018-11-11T00:28:14.552Z,3.10
2018-11-11T00:29:14.544Z,3.40
2018-11-11T00:30:14.517Z,3.40
2018-11-11T00:31:14.507Z,3.30
2018-11-11T00:32:14.493Z,3.30
2018-11-11T00:33:14.482Z,3.60
2018-11-11T00:34:14.496Z,3.20
2018-11-11T00:35:14.463Z,3.30
2018-11-11T00:36:14.455Z,3.40
2018-11-11T00:37:14.437Z,3.50
2018-11-11T00:38:14.427Z,3.20
2018-11-11T00:39:14.430Z,3.30
2018-11-11T00:40:14.414Z,3.40
2018-11-11T00:41:14.394Z,3.30
2018-11-11T00:42:14.380Z,3.40
2018-11-11T00:43:14.368Z,3.00
2018-11-11T00:44:14.374Z,3.40
2018-11-11T00:45:14.345Z,3.80
2018-11-11T00:46:14.345Z,3.20
2018-11-11T00:47:14.321Z,3.30
2018-11-11T00:48:14.310Z,3.20
2018-11-11T00:49:14.326Z,3.50
2018-11-11T00:50:14.293Z,3.70
2018-11-11T00:51:14.279Z,3.50
2018-11-11T00:52:14.280Z,3.60
2018-11-11T00:53:14.255Z,3.60
2018-11-11T00:54:14.263Z,3.40
2018-11-11T00:55:14.234Z,3.60
2018-11-11T00:56:14.219Z,3.60
2018-11-11T00:57:14.209Z,3.30
2018-11-11T00:58:14.208Z,3.60
2018-11-11T00:59:14.201Z,3.20
2018-11-11T01:00:14.175Z,3.40
2018-11-11T01:01:14.166Z,3.20
2018-11-11T01:02:14.153Z,3.50
2018-11-11T01:03:14.140Z,3.30
2018-11-11T01:04:14.154Z,3.20
2018-11-11T01:05:14.117Z,3.30
2018-11-11T01:06:14.107Z,3.10
2018-11-11T01:07:14.095Z,3.40
2018-11-11T01:08:14.082Z,3.20
2018-11-11T01:09:14.085Z,3.30
2018-11-11T01:10:14.068Z,3.50
2018-11-11T01:11:14.051Z,3.30
2018-11-11T01:12:14.132Z,3.20
2018-11-11T01:13:14.029Z,3.00
2018-11-11T01:14:14.049Z,3.40
2018-11-11T01:15:14.005Z,3.30
2018-11-11T01:16:13.998Z,3.20
2018-11-11T01:17:13.982Z,3.40
2018-11-11T01:18:13.968Z,3.20
2018-11-11T01:19:13.960Z,3.20
2018-11-11T01:20:13.960Z,3.20
2018-11-11T01:21:13.937Z,3.10
2018-11-11T01:22:13.929Z,3.50
2018-11-11T01:23:13.914Z,3.20
2018-11-11T01:24:13.902Z,3.40
2018-11-11T01:25:13.909Z,3.60
2018-11-11T01:26:13.878Z,3.10
2018-11-11T01:27:13.867Z,3.50
2018-11-11T01:28:13.863Z,3.10
2018-11-11T01:29:13.843Z,3.20
2018-11-11T01:30:13.850Z,3.50
2018-11-11T01:31:13.856Z,3.30
2018-11-11T01:32:13.812Z,3.50
2018-11-11T01:33:13.798Z,3.20
2018-11-11T01:34:13.794Z,3.40
2018-11-11T01:35:13.791Z,3.20
2018-11-11T01:36:13.767Z,3.20
2018-11-11T01:37:13.754Z,3.30
2018-11-11T01:38:13.741Z,3.30
2018-11-11T01:39:13.737Z,3.30
2018-11-11T01:40:13.744Z,3.60
2018-11-11T01:41:13.709Z,3.30
2018-11-11T01:42:13.695Z,3.20
2018-11-11T01:43:13.684Z,3.20
2018-11-11T01:44:13.676Z,3.50
2018-11-11T01:45:13.678Z,3.30
2018-11-11T01:46:13.660Z,3.20
2018-11-11T01:47:13.641Z,3.40
2018-11-11T01:48:13.627Z,3.00
2018-11-11T01:49:13.617Z,3.40
2018-11-11T01:50:13.624Z,3.40
2018-11-11T01:51:13.595Z,3.20
2018-11-11T01:52:13.588Z,3.20
2018-11-11T01:53:13.576Z,3.10
2018-11-11T01:54:13.559Z,3.20
2018-11-11T01:55:13.565Z,3.60
2018-11-11T01:56:13.540Z,3.00
2018-11-11T01:57:13.528Z,3.40
2018-11-11T01:58:13.525Z,3.00
2018-11-11T01:59:13.502Z,3.00
2018-11-11T02:00:13.509Z,3.30
2018-11-11T02:01:13.478Z,3.00
2018-11-11T02:02:13.470Z,3.00
2018-11-11T02:03:13.459Z,3.30
2018-11-11T02:04:13.457Z,2.90
2018-11-11T02:05:13.449Z,3.10
2018-11-11T02:06:13.426Z,3.10
2018-11-11T02:07:13.416Z,3.00
2018-11-11T02:08:13.400Z,3.40
2018-11-11T02:09:13.392Z,3.10
2018-11-11T02:10:13.405Z,3.10
2018-11-11T02:11:13.369Z,2.80
2018-11-11T02:12:13.356Z,2.90
2018-11-11T02:13:13.344Z,3.10
2018-11-11T02:14:13.336Z,3.00
2018-11-11T02:15:13.336Z,2.90
2018-11-11T02:16:13.319Z,3.10
2018-11-11T02:17:13.298Z,2.70
2018-11-11T02:18:13.287Z,3.20
2018-11-11T02:19:13.276Z,3.10
2018-11-11T02:20:13.281Z,2.70
2018-11-11T02:21:13.398Z,2.90
2018-11-11T02:22:13.252Z,3.10
2018-11-11T02:23:13.232Z,3.20
2018-11-11T02:24:13.219Z,3.00
2018-11-11T02:25:13.225Z,3.00
2018-11-11T02:26:13.200Z,2.80
2018-11-11T02:27:13.187Z,3.20
2018-11-11T02:28:13.183Z,3.00
2018-11-11T02:29:13.162Z,2.80
2018-11-11T02:30:13.168Z,2.90
2018-11-11T02:31:13.140Z,3.00
2018-11-11T02:32:13.130Z,2.90
2018-11-11T02:33:13.120Z,3.20
2018-11-11T02:34:13.116Z,3.00
2018-11-11T02:35:13.111Z,3.10
2018-11-11T02:36:13.083Z,2.90
2018-11-11T02:37:13.088Z,2.90
2018-11-11T02:38:13.068Z,2.80
2018-11-11T02:39:13.050Z,2.70
2018-11-11T02:40:13.060Z,2.80
2018-11-11T02:41:13.026Z,2.80
2018-11-11T02:42:13.015Z,3.00
2018-11-11T02:43:13.005Z,3.20
2018-11-11T02:44:12.999Z,3.00
2018-11-11T02:45:12.998Z,2.80
2018-11-11T02:46:12.992Z,2.90
2018-11-11T02:47:12.959Z,2.70
2018-11-11T02:48:12.948Z,2.50
2018-11-11T02:49:12.935Z,2.70
2018-11-11T02:50:12.933Z,3.10
2018-11-11T02:51:12.928Z,2.90
2018-11-11T02:52:12.908Z,2.90
2018-11-11T02:53:12.890Z,2.70
2018-11-11T02:54:12.878Z,2.80
2018-11-11T02:55:12.868Z,2.80
2018-11-11T02:56:12.869Z,2.70
2018-11-11T02:57:12.843Z,2.80
2018-11-11T02:58:12.848Z,2.50
2018-11-11T02:59:12.834Z,2.90
2018-11-11T03:00:12.813Z,2.70
2018-11-11T03:01:12.814Z,2.90
2018-11-11T03:02:12.791Z,2.80
2018-11-11T03:03:12.783Z,2.70
2018-11-11T03:04:12.811Z,2.70
2018-11-11T03:05:12.764Z,2.40
2018-11-11T03:06:12.757Z,2.70
2018-11-11T03:07:12.732Z,2.40
2018-11-11T03:08:12.718Z,2.60
2018-11-11T03:09:12.708Z,2.50
2018-11-11T03:10:12.703Z,2.70
2018-11-11T03:11:12.698Z,2.50
2018-11-11T03:12:12.715Z,2.60
2018-11-11T03:13:12.695Z,2.40
2018-11-11T03:14:12.689Z,2.60
2018-11-11T03:15:12.676Z,2.70
2018-11-11T03:16:12.713Z,2.50
2018-11-11T03:17:12.615Z,2.60
2018-11-11T03:18:12.605Z,2.60
2018-11-11T03:19:12.599Z,2.60
2018-11-11T03:20:12.582Z,2.50
2018-11-11T03:21:12.585Z,2.70
2018-11-11T03:22:12.575Z,2.90
2018-11-11T03:23:12.553Z,2.50
2018-11-11T03:24:12.539Z,2.60
2018-11-11T03:25:12.527Z,2.60
2018-11-11T03:26:12.531Z,2.50
2018-11-11T03:27:12.502Z,2.50
2018-11-11T03:28:12.501Z,2.50
2018-11-11T03:29:12.485Z,2.70
2018-11-11T03:30:12.480Z,2.80
2018-11-11T03:31:12.475Z,2.50
2018-11-11T03:32:12.448Z,2.70
2018-11-11T03:33:12.432Z,2.70
2018-11-11T03:34:12.430Z,2.10
2018-11-11T03:35:12.415Z,2.30
2018-11-11T03:36:12.429Z,2.60
2018-11-11T03:37:12.396Z,2.70
2018-11-11T03:38:12.380Z,2.20
2018-11-11T03:39:12.370Z,2.40
2018-11-11T03:40:12.360Z,2.50
2018-11-11T03:41:12.345Z,2.60
2018-11-11T03:42:12.351Z,2.40
2018-11-11T03:43:12.327Z,2.40
2018-11-11T03:44:12.313Z,2.50
2018-11-11T03:45:12.299Z,2.40
2018-11-11T03:46:12.299Z,2.50
2018-11-11T03:47:12.291Z,2.10
2018-11-11T03:48:12.279Z,2.50
2018-11-11T03:49:12.253Z,2.40
2018-11-11T03:50:12.243Z,2.70
2018-11-11T03:51:12.230Z,2.40
2018-11-11T03:52:12.243Z,2.30
2018-11-11T03:53:12.215Z,2.40
2018-11-11T03:54:12.198Z,2.60
2018-11-11T03:55:12.189Z,2.50
2018-11-11T03:56:12.174Z,2.30
2018-11-11T03:57:12.177Z,2.40
2018-11-11T03:58:12.163Z,2.90
2018-11-11T03:59:12.141Z,2.30
2018-11-11T04:00:12.134Z,2.50
2018-11-11T04:01:12.117Z,2.30
2018-11-11T04:02:12.122Z,2.20
2018-11-11T04:03:12.097Z,2.30
2018-11-11T04:04:12.094Z,2.30
2018-11-11T04:05:12.092Z,2.20
2018-11-11T04:06:12.061Z,2.30
2018-11-11T04:07:12.061Z,2.30
2018-11-11T04:08:12.039Z,2.40
2018-11-11T04:09:12.026Z,2.10
2018-11-11T04:10:12.052Z,2.40
2018-11-11T04:11:12.007Z,2.50
2018-11-11T04:12:12.008Z,2.50
2018-11-11T04:13:11.986Z,2.70
2018-11-11T04:14:11.969Z,2.40
2018-11-11T04:15:11.969Z,2.60
2018-11-11T04:16:11.962Z,2.30
2018-11-11T04:17:11.955Z,2.40
2018-11-11T04:18:11.930Z,2.00
2018-11-11T04:19:11.914Z,2.10
2018-11-11T04:20:11.904Z,2.40
2018-11-11T04:21:11.895Z,2.10
2018-11-11T04:22:11.902Z,2.40
2018-11-11T04:23:11.872Z,2.30
2018-11-11T04:24:11.859Z,2.40
2018-11-11T04:25:11.848Z,2.20
2018-11-11T04:26:11.855Z,2.10
2018-11-11T04:27:11.849Z,2.00
2018-11-11T04:28:11.815Z,2.50
2018-11-11T04:29:11.809Z,2.20
2018-11-11T04:30:11.791Z,2.10
2018-11-11T04:31:11.782Z,2.10
2018-11-11T04:32:11.784Z,2.30
2018-11-11T04:33:11.766Z,2.10
2018-11-11T04:34:11.751Z,2.10
2018-11-11T04:35:11.738Z,2.10
2018-11-11T04:36:11.734Z,2.00
2018-11-11T04:37:11.751Z,2.40
2018-11-11T04:38:11.704Z,2.30
2018-11-11T04:39:11.766Z,2.30
2018-11-11T04:40:11.684Z,2.20
2018-11-11T04:41:11.664Z,2.00
2018-11-11T04:42:11.669Z,2.20
2018-11-11T04:43:11.644Z,2.10
2018-11-11T04:44:11.636Z,2.10
2018-11-11T04:45:11.641Z,2.30
2018-11-11T04:46:11.641Z,2.20
2018-11-11T04:47:11.614Z,1.90
2018-11-11T04:48:11.593Z,2.20
2018-11-11T04:49:11.578Z,2.10
2018-11-11T04:50:11.568Z,2.00
2018-11-11T04:51:11.562Z,2.30
2018-11-11T04:52:11.545Z,2.00
2018-11-11T04:53:11.547Z,2.10
2018-11-11T04:54:11.519Z,1.90
2018-11-11T04:55:11.515Z,2.10
2018-11-11T04:56:11.500Z,2.10
2018-11-11T04:57:11.497Z,2.20
2018-11-11T04:58:11.489Z,2.00
2018-11-11T04:59:11.470Z,2.10
2018-11-11T05:00:11.449Z,2.00
2018-11-11T05:01:11.449Z,2.10
2018-11-11T05:02:11.428Z,2.20
2018-11-11T05:03:11.441Z,2.00
2018-11-11T05:04:11.408Z,2.20
2018-11-11T05:05:11.399Z,2.00
2018-11-11T05:06:11.383Z,2.20
2018-11-11T05:07:11.374Z,2.40
2018-11-11T05:08:11.378Z,2.20
2018-11-11T05:09:11.361Z,2.10
2018-11-11T05:10:11.339Z,2.00
2018-11-11T05:11:11.328Z,2.10
2018-11-11T05:12:11.318Z,2.20
2018-11-11T05:13:11.321Z,2.00
2018-11-11T05:14:11.291Z,2.20
2018-11-11T05:15:11.290Z,2.10
2018-11-11T05:16:11.269Z,2.10
2018-11-11T05:17:11.259Z,2.20
2018-11-11T05:18:11.261Z,2.20
2018-11-11T05:19:11.239Z,2.10
2018-11-11T05:20:11.223Z,2.00
2018-11-11T05:21:11.225Z,2.10
2018-11-11T05:22:11.200Z,2.00
2018-11-11T05:23:11.258Z,2.10
2018-11-11T05:24:11.178Z,2.20
2018-11-11T05:25:11.167Z,2.00
2018-11-11T05:26:11.155Z,2.30
2018-11-11T05:27:11.156Z,2.10
2018-11-11T05:28:11.149Z,2.20
2018-11-11T05:29:11.123Z,2.10
2018-11-11T05:30:11.111Z,2.00
2018-11-11T05:31:11.102Z,2.00
2018-11-11T05:32:11.091Z,2.30
2018-11-11T05:33:11.100Z,2.20
2018-11-11T05:34:11.068Z,1.80
2018-11-11T05:35:11.056Z,2.00
2018-11-11T05:36:11.043Z,2.10
2018-11-11T05:37:11.035Z,1.90
2018-11-11T05:38:11.036Z,2.00
2018-11-11T05:39:11.022Z,1.90
2018-11-11T05:40:10.997Z,2.10
2018-11-11T05:41:10.988Z,2.20
2018-11-11T05:42:10.977Z,2.00
2018-11-11T05:43:10.981Z,1.90
2018-11-11T05:44:10.953Z,1.90
2018-11-11T05:45:10.950Z,2.00
2018-11-11T05:46:10.930Z,1.90
2018-11-11T05:47:10.919Z,1.90
2018-11-11T05:48:10.922Z,1.70
2018-11-11T05:49:10.901Z,2.10
2018-11-11T05:50:10.885Z,2.10
2018-11-11T05:51:10.886Z,2.10
2018-11-11T05:52:10.862Z,2.10
2018-11-11T05:53:10.869Z,2.00
2018-11-11T05:54:10.840Z,2.00
2018-11-11T05:55:10.828Z,2.00
2018-11-11T05:56:10.820Z,1.80
2018-11-11T05:57:10.820Z,2.00
2018-11-11T05:58:10.811Z,1.90
2018-11-11T05:59:10.785Z,1.80
2018-11-11T06:00:10.773Z,1.90
2018-11-11T06:01:10.759Z,2.10
2018-11-11T06:02:10.749Z,2.00
2018-11-11T06:03:10.768Z,1.70
2018-11-11T06:04:10.726Z,2.00
2018-11-11T06:05:10.716Z,1.80
2018-11-11T06:06:10.703Z,2.00
2018-11-11T06:07:10.692Z,1.80
2018-11-11T06:08:10.703Z,1.90
2018-11-11T06:09:10.680Z,1.90
2018-11-11T06:10:10.656Z,1.90
2018-11-11T06:11:10.648Z,2.00
2018-11-11T06:12:10.638Z,2.00
2018-11-11T06:13:10.655Z,2.00
2018-11-11T06:14:10.612Z,1.60
2018-11-11T06:15:10.612Z,1.90
2018-11-11T06:16:10.588Z,2.00
2018-11-11T06:17:10.768Z,1.80
2018-11-11T06:18:10.568Z,1.90
2018-11-11T06:19:10.569Z,1.70
2018-11-11T06:20:11.593Z,2.00
2018-11-11T06:21:10.531Z,2.00
2018-11-11T06:22:10.521Z,1.90
2018-11-11T06:23:10.519Z,1.90
2018-11-11T06:24:10.512Z,1.90
2018-11-11T06:25:10.486Z,1.90
2018-11-11T06:26:10.474Z,1.90
2018-11-11T06:27:10.463Z,2.80
2018-11-11T06:28:10.468Z,4.70
2018-11-11T06:29:10.459Z,4.10
2018-11-11T06:30:10.431Z,3.20
2018-11-11T06:31:10.418Z,3.00
2018-11-11T06:32:10.407Z,2.60
2018-11-11T06:33:10.395Z,2.80
2018-11-11T06:34:10.553Z,2.50
2018-11-11T06:35:10.376Z,2.60
2018-11-11T06:36:10.361Z,2.30
2018-11-11T06:37:10.350Z,2.60
2018-11-11T06:38:10.338Z,2.60
2018-11-11T06:39:10.341Z,2.30
2018-11-11T06:40:10.321Z,2.20
2018-11-11T06:41:10.304Z,2.20
2018-11-11T06:42:10.294Z,2.10
2018-11-11T06:43:10.282Z,2.30
2018-11-11T06:44:10.298Z,2.10
2018-11-11T06:45:10.261Z,2.00
2018-11-11T06:46:10.257Z,2.20
2018-11-11T06:47:10.242Z,2.10
2018-11-11T06:48:10.360Z,1.90
2018-11-11T06:49:10.227Z,2.20
2018-11-11T06:50:10.200Z,2.20
2018-11-11T06:51:10.192Z,2.20
2018-11-11T06:52:10.185Z,2.10
2018-11-11T06:53:10.167Z,2.30
2018-11-11T06:54:10.171Z,2.10
2018-11-11T06:55:10.143Z,2.00
2018-11-11T06:56:10.133Z,2.20
2018-11-11T06:57:10.122Z,2.10
2018-11-11T06:58:11.071Z,2.10
2018-11-11T06:59:10.114Z,2.20
2018-11-11T07:00:10.086Z,1.90
2018-11-11T07:01:10.174Z,2.00
2018-11-11T07:02:10.065Z,2.00
2018-11-11T07:03:10.056Z,1.80
2018-11-11T07:04:10.064Z,2.00
2018-11-11T07:05:10.049Z,2.00
2018-11-11T07:06:10.019Z,1.90
2018-11-11T07:07:10.007Z,1.90
2018-11-11T07:08:09.996Z,2.00
2018-11-11T07:09:10.412Z,1.80
2018-11-11T07:10:09.974Z,1.80
2018-11-11T07:11:09.964Z,1.90
2018-11-11T07:12:09.950Z,1.60
2018-11-11T07:13:09.940Z,1.90
2018-11-11T07:14:10.339Z,1.70
2018-11-11T07:15:10.348Z,2.10
2018-11-11T07:16:09.909Z,2.00
2018-11-11T07:17:09.896Z,2.10
2018-11-11T07:18:09.884Z,2.00
2018-11-11T07:19:09.875Z,2.10
2018-11-11T07:20:09.978Z,2.10
2018-11-11T07:21:09.859Z,2.20
2018-11-11T07:22:09.839Z,1.90
2018-11-11T07:23:09.828Z,2.20
2018-11-11T07:24:09.874Z,2.20
2018-11-11T07:25:09.831Z,2.20
2018-11-11T07:26:09.793Z,2.10
2018-11-11T07:27:09.793Z,2.20
2018-11-11T07:28:09.773Z,2.20
2018-11-11T07:29:09.766Z,2.20
2018-11-11T07:30:09.769Z,2.30
2018-11-11T07:31:09.740Z,2.70
2018-11-11T07:32:09.728Z,2.70
2018-11-11T07:33:09.720Z,2.50
2018-11-11T07:34:09.706Z,2.70
2018-11-11T07:35:09.716Z,2.70
2018-11-11T07:36:09.830Z,2.40
2018-11-11T07:37:09.673Z,2.70
2018-11-11T07:38:09.661Z,3.60
2018-11-11T07:39:09.655Z,4.00
2018-11-11T07:40:09.660Z,3.50
2018-11-11T07:41:09.629Z,3.50
2018-11-11T07:42:09.650Z,3.50
2018-11-11T07:43:09.605Z,2.60
2018-11-11T07:44:09.594Z,3.40
2018-11-11T07:45:09.603Z,3.20
2018-11-11T07:46:09.570Z,3.10
2018-11-11T07:47:09.560Z,3.00
2018-11-11T07:48:09.551Z,2.80
2018-11-11T07:49:09.538Z,2.70
2018-11-11T07:50:09.543Z,2.90
2018-11-11T07:51:09.527Z,2.80
2018-11-11T07:52:09.599Z,2.70
2018-11-11T07:53:09.492Z,2.80
2018-11-11T07:54:09.481Z,2.50
2018-11-11T07:55:09.553Z,2.90
2018-11-11T07:56:09.458Z,2.60
2018-11-11T07:57:09.454Z,2.80
2018-11-11T07:58:09.435Z,2.70
2018-11-11T07:59:09.424Z,2.80
2018-11-11T08:00:09.431Z,2.70
2018-11-11T08:01:09.400Z,2.60
2018-11-11T08:02:09.506Z,3.00
2018-11-11T08:03:09.438Z,2.70
2018-11-11T08:04:09.369Z,2.80
2018-11-11T08:05:09.371Z,2.70
2018-11-11T08:06:09.347Z,2.40
2018-11-11T08:07:09.335Z,2.40
2018-11-11T08:08:09.323Z,2.50
2018-11-11T08:09:09.319Z,2.70
2018-11-11T08:10:09.318Z,2.70
2018-11-11T08:11:09.330Z,2.70
2018-11-11T08:12:09.277Z,2.30
2018-11-11T08:13:09.268Z,2.60
2018-11-11T08:14:09.255Z,2.80
2018-11-11T08:15:09.266Z,2.50
2018-11-11T08:16:09.233Z,2.50
2018-11-11T08:17:09.221Z,2.70
2018-11-11T08:18:09.208Z,2.40
2018-11-11T08:19:09.196Z,2.50
2018-11-11T08:20:09.204Z,2.40
2018-11-11T08:21:09.187Z,2.30
2018-11-11T08:22:09.175Z,2.40
2018-11-11T08:23:09.152Z,2.20
2018-11-11T08:24:09.139Z,2.60
2018-11-11T08:25:09.145Z,2.50
2018-11-11T08:26:09.120Z,2.00
2018-11-11T08:27:09.114Z,2.50
2018-11-11T08:28:09.097Z,2.30
2018-11-11T08:29:09.082Z,2.30
2018-11-11T08:30:09.071Z,2.40
2018-11-11T08:31:09.077Z,2.30
2018-11-11T08:32:09.108Z,2.40
2018-11-11T08:33:09.047Z,2.60
2018-11-11T08:34:09.026Z,2.40
2018-11-11T08:35:09.014Z,2.20
2018-11-11T08:36:09.019Z,2.50
2018-11-11T08:37:08.993Z,2.30
2018-11-11T08:38:08.981Z,2.10
2018-11-11T08:39:08.981Z,2.30
2018-11-11T08:40:08.958Z,2.30
2018-11-11T08:41:08.961Z,2.30
2018-11-11T08:42:09.050Z,2.20
2018-11-11T08:43:08.925Z,2.00
2018-11-11T08:44:08.913Z,2.20
2018-11-11T08:45:08.899Z,2.10
2018-11-11T08:46:08.917Z,2.40
2018-11-11T08:47:08.880Z,2.30
2018-11-11T08:48:08.872Z,2.20
2018-11-11T08:49:08.858Z,2.10
2018-11-11T08:50:08.844Z,2.20
2018-11-11T08:51:08.847Z,2.40
2018-11-11T08:52:08.834Z,2.20
2018-11-11T08:53:08.810Z,2.40
2018-11-11T08:54:08.799Z,2.20
2018-11-11T08:55:08.786Z,2.20
2018-11-11T08:56:08.791Z,2.50
2018-11-11T08:57:08.764Z,2.20
2018-11-11T08:58:08.818Z,2.10
2018-11-11T08:59:08.740Z,2.10
2018-11-11T09:00:08.731Z,2.30
2018-11-11T09:01:08.737Z,2.10
2018-11-11T09:02:08.708Z,2.00
2018-11-11T09:03:08.698Z,2.20
2018-11-11T09:04:08.691Z,2.10
2018-11-11T09:05:08.675Z,2.50
2018-11-11T09:06:08.675Z,2.10
2018-11-11T09:07:08.652Z,2.10
2018-11-11T09:08:08.638Z,2.30
2018-11-11T09:09:08.628Z,2.30
2018-11-11T09:10:08.624Z,2.20
2018-11-11T09:11:08.617Z,2.30
2018-11-11T09:12:08.592Z,2.00
2018-11-11T09:13:08.582Z,2.20
2018-11-11T09:14:08.570Z,2.40
2018-11-11T09:15:08.561Z,2.10
2018-11-11T09:16:08.570Z,2.20
2018-11-11T09:17:08.574Z,2.00
2018-11-11T09:18:08.530Z,2.10
2018-11-11T09:19:08.514Z,2.00
2018-11-11T09:20:08.500Z,2.10
2018-11-11T09:21:08.513Z,2.10
2018-11-11T09:22:08.487Z,2.20
2018-11-11T09:23:08.466Z,2.00
2018-11-11T09:24:08.459Z,2.00
2018-11-11T09:25:08.443Z,2.20
2018-11-11T09:26:08.447Z,2.00
2018-11-11T09:27:08.420Z,2.10
2018-11-11T09:28:08.427Z,1.90
2018-11-11T09:29:08.398Z,2.10
2018-11-11T09:30:08.386Z,2.20
2018-11-11T09:31:08.417Z,2.10
2018-11-11T09:32:08.363Z,1.90
2018-11-11T09:33:08.351Z,2.10
2018-11-11T09:34:08.349Z,1.90
2018-11-11T09:35:08.366Z,1.90
2018-11-11T09:36:08.337Z,2.10
2018-11-11T09:37:08.306Z,1.90
2018-11-11T09:38:08.294Z,2.00
2018-11-11T09:39:08.354Z,1.80
2018-11-11T09:40:08.281Z,1.90
2018-11-11T09:41:08.276Z,2.00
2018-11-11T09:42:08.249Z,2.00
2018-11-11T09:43:08.239Z,2.00
2018-11-11T09:44:08.229Z,1.90
2018-11-11T09:45:08.215Z,2.30
2018-11-11T09:46:08.230Z,2.00
2018-11-11T09:47:08.190Z,1.80
2018-11-11T09:48:08.181Z,2.10
2018-11-11T09:49:08.169Z,1.90
2018-11-11T09:50:08.160Z,1.80
2018-11-11T09:51:08.178Z,2.00
2018-11-11T09:52:08.149Z,1.70
2018-11-11T09:53:08.126Z,2.10
2018-11-11T09:54:08.153Z,2.10
2018-11-11T09:55:08.101Z,1.60
2018-11-11T09:56:08.090Z,1.80
2018-11-11T09:57:08.094Z,2.00
2018-11-11T09:58:08.077Z,1.80
2018-11-11T09:59:08.057Z,1.70
2018-11-11T10:00:08.044Z,1.70
2018-11-11T10:01:08.037Z,2.00
2018-11-11T10:02:08.036Z,2.00
2018-11-11T10:03:08.011Z,1.80
2018-11-11T10:04:08.010Z,1.80
2018-11-11T10:05:07.986Z,2.00
2018-11-11T10:06:07.979Z,2.00
2018-11-11T10:07:08.117Z,1.90
2018-11-11T10:08:07.960Z,1.90
2018-11-11T10:09:07.944Z,2.00
2018-11-11T10:10:07.947Z,1.70
2018-11-11T10:11:07.920Z,1.90
2018-11-11T10:12:07.924Z,1.80
2018-11-11T10:13:07.898Z,1.80
2018-11-11T10:14:07.887Z,1.70
2018-11-11T10:15:07.881Z,1.80
2018-11-11T10:16:07.878Z,1.90
2018-11-11T10:17:07.869Z,1.90
2018-11-11T10:18:07.842Z,1.80
2018-11-11T10:19:07.833Z,1.90
2018-11-11T10:20:07.836Z,2.00
2018-11-11T10:21:07.808Z,2.10
2018-11-11T10:22:07.837Z,1.90
2018-11-11T10:23:07.785Z,2.00
2018-11-11T10:24:07.774Z,1.70
2018-11-11T10:25:07.764Z,1.80
2018-11-11T10:26:07.753Z,1.70
2018-11-11T10:27:07.774Z,1.70
2018-11-11T10:28:07.747Z,1.70
2018-11-11T10:29:07.738Z,1.50
2018-11-11T10:30:07.709Z,2.00
2018-11-11T10:31:07.697Z,1.90
2018-11-11T10:32:07.689Z,1.70
2018-11-11T10:33:07.700Z,1.80
2018-11-11T10:34:07.665Z,1.80
2018-11-11T10:35:07.652Z,2.00
2018-11-11T10:36:07.643Z,1.70
2018-11-11T10:37:07.687Z,1.70
2018-11-11T10:38:07.636Z,1.80
2018-11-11T10:39:07.674Z,1.50
2018-11-11T10:40:07.597Z,1.90
2018-11-11T10:41:07.587Z,2.00
2018-11-11T10:42:07.575Z,1.70
2018-11-11T10:43:07.578Z,1.70
2018-11-11T10:44:07.553Z,1.60
2018-11-11T10:45:07.542Z,1.80
2018-11-11T10:46:07.549Z,1.90
2018-11-11T10:47:07.518Z,1.70
2018-11-11T10:48:07.523Z,2.10
2018-11-11T10:49:07.498Z,1.80
2018-11-11T10:50:07.486Z,1.70
2018-11-11T10:51:07.475Z,1.60
2018-11-11T10:52:07.476Z,1.80
2018-11-11T10:53:07.472Z,1.80
2018-11-11T10:54:07.504Z,1.80
2018-11-11T10:55:07.430Z,1.70
2018-11-11T10:56:07.421Z,1.60
2018-11-11T10:57:07.422Z,1.70
2018-11-11T10:58:07.433Z,1.80
2018-11-11T10:59:07.387Z,1.50
2018-11-11T11:00:07.402Z,1.60
2018-11-11T11:01:07.379Z,1.70
2018-11-11T11:02:07.360Z,1.70
2018-11-11T11:03:07.342Z,1.60
2018-11-11T11:04:07.373Z,1.80
2018-11-11T11:05:07.323Z,1.80
2018-11-11T11:06:07.396Z,2.00
2018-11-11T11:07:07.302Z,1.50
2018-11-11T11:08:07.290Z,1.60
2018-11-11T11:09:07.294Z,1.50
2018-11-11T11:10:07.278Z,1.60
2018-11-11T11:11:07.254Z,1.80
2018-11-11T11:12:07.245Z,1.50
2018-11-11T11:13:07.253Z,1.70
2018-11-11T11:14:07.238Z,1.80
2018-11-11T11:15:07.211Z,1.90
2018-11-11T11:16:07.208Z,1.80
2018-11-11T11:17:07.188Z,1.50
2018-11-11T11:18:07.178Z,1.80
2018-11-11T11:19:07.184Z,1.70
2018-11-11T11:20:07.158Z,1.70
2018-11-11T11:21:07.145Z,1.70
2018-11-11T11:22:07.148Z,1.50
2018-11-11T11:23:07.182Z,1.60
2018-11-11T11:24:07.128Z,1.60
2018-11-11T11:25:07.104Z,1.60
2018-11-11T11:26:07.096Z,1.60
2018-11-11T11:27:07.087Z,1.50
2018-11-11T11:28:07.080Z,1.90
2018-11-11T11:29:07.078Z,1.50
2018-11-11T11:30:07.049Z,1.60
2018-11-11T11:31:07.039Z,1.50
2018-11-11T11:32:07.092Z,1.60
2018-11-11T11:33:07.017Z,1.60
2018-11-11T11:34:07.050Z,1.70
2018-11-11T11:35:07.052Z,1.60
2018-11-11T11:36:06.985Z,1.60
2018-11-11T11:37:06.977Z,1.70
2018-11-11T11:38:07.002Z,1.70
2018-11-11T11:39:06.952Z,1.60
2018-11-11T11:40:06.965Z,1.80
2018-11-11T11:41:06.990Z,1.40
2018-11-11T11:42:06.920Z,1.70
2018-11-11T11:43:06.921Z,1.40
2018-11-11T11:44:06.959Z,1.50
2018-11-11T11:45:06.904Z,1.60
2018-11-11T11:46:06.882Z,1.80
2018-11-11T11:47:06.865Z,1.30
2018-11-11T11:48:06.859Z,1.30
2018-11-11T11:49:06.841Z,1.50
2018-11-11T11:50:06.949Z,1.50
2018-11-11T11:51:06.831Z,1.40
2018-11-11T11:52:06.838Z,1.70
2018-11-11T11:53:06.803Z,1.50
2018-11-11T11:54:06.794Z,1.70
2018-11-11T11:55:06.790Z,1.40
2018-11-11T11:56:06.765Z,1.40
2018-11-11T11:57:06.761Z,1.40
2018-11-11T11:58:06.757Z,1.50
2018-11-11T11:59:06.731Z,1.40
2018-11-11T12:00:06.738Z,1.70
2018-11-11T12:01:06.709Z,1.60
2018-11-11T12:02:06.757Z,1.30
2018-11-11T12:03:06.697Z,1.50
2018-11-11T12:04:06.680Z,1.60
2018-11-11T12:05:06.679Z,1.50
2018-11-11T12:06:06.655Z,1.40
2018-11-11T12:07:06.643Z,1.50
2018-11-11T12:08:06.631Z,1.40
2018-11-11T12:09:06.716Z,1.50
2018-11-11T12:10:06.625Z,1.40
2018-11-11T12:11:06.600Z,1.50
2018-11-11T12:12:06.591Z,1.40
2018-11-11T12:13:06.576Z,1.40
2018-11-11T12:14:06.563Z,1.50
2018-11-11T12:15:06.577Z,1.40
2018-11-11T12:16:06.541Z,1.50
2018-11-11T12:17:06.615Z,1.40
2018-11-11T12:18:06.520Z,1.40
2018-11-11T12:19:06.506Z,1.30
2018-11-11T12:20:06.510Z,1.30
2018-11-11T12:21:06.493Z,1.40
2018-11-11T12:22:06.475Z,1.30
2018-11-11T12:23:06.534Z,1.40
2018-11-11T12:24:06.451Z,1.40
2018-11-11T12:25:06.455Z,1.40
2018-11-11T12:26:06.429Z,1.30
2018-11-11T12:27:06.421Z,1.20
2018-11-11T12:28:06.406Z,1.40
2018-11-11T12:29:06.397Z,1.40
2018-11-11T12:30:06.403Z,1.20
2018-11-11T12:31:06.377Z,1.30
2018-11-11T12:32:06.361Z,1.40
2018-11-11T12:33:06.365Z,1.40
2018-11-11T12:34:06.342Z,1.40
2018-11-11T12:35:06.402Z,1.40
2018-11-11T12:36:06.320Z,1.50
2018-11-11T12:37:06.308Z,1.30
2018-11-11T12:38:06.295Z,1.20
2018-11-11T12:39:06.411Z,1.20
2018-11-11T12:40:06.473Z,1.30
2018-11-11T12:41:06.263Z,1.30
2018-11-11T12:42:06.255Z,1.30
2018-11-11T12:43:06.244Z,1.20
2018-11-11T12:44:06.231Z,1.40
2018-11-11T12:45:06.244Z,1.50
2018-11-11T12:46:06.207Z,1.20
2018-11-11T12:47:06.239Z,1.50
2018-11-11T12:48:06.186Z,1.20
2018-11-11T12:49:06.244Z,1.30
2018-11-11T12:50:06.243Z,1.30
2018-11-11T12:51:06.158Z,1.40
2018-11-11T12:52:06.141Z,1.30
2018-11-11T12:53:06.131Z,1.50
2018-11-11T12:54:06.121Z,1.40
2018-11-11T12:55:06.152Z,1.20
2018-11-11T12:56:06.097Z,1.30
2018-11-11T12:57:06.095Z,1.30
2018-11-11T12:58:06.075Z,1.10
2018-11-11T12:59:06.064Z,1.30
2018-11-11T13:00:06.069Z,1.40
2018-11-11T13:01:06.042Z,1.40
2018-11-11T13:02:06.031Z,1.40
2018-11-11T13:03:06.028Z,1.30
2018-11-11T13:04:06.009Z,1.30
2018-11-11T13:05:06.029Z,1.30
2018-11-11T13:06:05.987Z,1.40
2018-11-11T13:07:05.975Z,1.20
2018-11-11T13:08:05.993Z,1.50
2018-11-11T13:09:05.964Z,1.30
2018-11-11T13:10:05.942Z,1.30
2018-11-11T13:11:05.947Z,1.30
2018-11-11T13:12:06.022Z,1.20
2018-11-11T13:13:05.908Z,1.30
2018-11-11T13:14:05.903Z,1.10
2018-11-11T13:15:05.891Z,1.30
2018-11-11T13:16:05.889Z,1.20
2018-11-11T13:17:05.866Z,1.30
2018-11-11T13:18:05.851Z,1.30